Time;durP1;ratioP1;P1;durP2;ratioP2;P2;SDS_P1;SDS_P2;PMS_P1;PMS_P2;Temp;Humidity;BMP_temperature;BMP_pressure;BME280_temperature;BME280_humidity;BME280_pressure;Samples;Min_cycle;Max_cycle;Signal;HPM_P1;HPM_P2
2023/03/23 00:02:14;;;;;;;4.22;1.90;;;;;;;-145.01;100.00;64805.59;5090120;28;20100;-60
2023/03/23 00:04:42;;;;;;;4.10;2.13;;;;;;;-145.01;100.00;64805.59;5073734;28;20063;-59
2023/03/23 00:07:08;;;;;;;3.45;2.00;;;;;;;-145.01;100.00;64805.59;5083421;28;20024;-60
2023/03/23 00:09:34;;;;;;;6.78;2.20;;;;;;;-145.01;100.00;64805.59;5078502;28;20016;-60
2023/03/23 00:12:04;;;;;;;3.33;1.75;;;;;;;-145.01;100.00;64805.59;5070154;28;20037;-60
2023/03/23 00:14:40;;;;;;;3.83;1.90;;;;;;;-145.01;100.00;64805.59;5080607;28;20035;-60
2023/03/23 00:17:10;;;;;;;4.75;2.05;;;;;;;-145.01;100.00;64805.59;5077598;28;20070;-60
2023/03/23 00:19:45;;;;;;;5.63;2.10;;;;;;;-145.01;100.00;64805.59;5078321;28;20023;-60
2023/03/23 00:22:14;;;;;;;4.97;1.88;;;;;;;-145.01;100.00;64805.59;5076375;28;20131;-60
2023/03/23 00:24:40;;;;;;;4.75;1.90;;;;;;;-145.01;100.00;64805.59;5084747;28;20016;-60
2023/03/23 00:27:05;;;;;;;6.70;1.80;;;;;;;-145.01;100.00;64805.59;5092941;28;20047;-59
2023/03/23 00:29:31;;;;;;;4.30;2.15;;;;;;;-145.01;100.00;64805.59;5086990;28;20383;-60
2023/03/23 00:31:57;;;;;;;4.43;2.10;;;;;;;-145.01;100.00;64805.59;5077853;28;20502;-60
2023/03/23 00:34:24;;;;;;;4.88;1.90;;;;;;;-145.01;100.00;64805.59;5080367;28;20036;-60
2023/03/23 00:36:51;;;;;;;8.00;2.10;;;;;;;-145.01;100.00;64805.59;5062392;28;20042;-60
2023/03/23 00:39:17;;;;;;;3.00;1.92;;;;;;;-145.01;100.00;64805.59;5076226;28;20040;-60
2023/03/23 00:41:43;;;;;;;6.10;1.95;;;;;;;-145.01;100.00;64805.59;5077251;28;20036;-60
2023/03/23 00:44:08;;;;;;;4.47;2.08;;;;;;;-145.01;100.00;64805.59;5065685;28;20031;-60
2023/03/23 00:46:34;;;;;;;5.25;2.20;;;;;;;-145.01;100.00;64805.59;5081287;28;20366;-60
2023/03/23 00:49:00;;;;;;;5.38;2.10;;;;;;;-145.01;100.00;64805.59;5076378;28;20033;-60
2023/03/23 00:51:25;;;;;;;4.60;2.35;;;;;;;-145.01;100.00;64805.59;5079412;28;20028;-59
2023/03/23 00:53:50;;;;;;;5.55;1.92;;;;;;;-145.01;100.00;64805.59;5083864;28;20032;-60
2023/03/23 00:56:16;;;;;;;3.97;2.15;;;;;;;-145.01;100.00;64805.59;5079211;28;20032;-60
2023/03/23 00:58:41;;;;;;;5.40;2.25;;;;;;;-145.01;100.00;64805.59;5062666;28;20028;-60
2023/03/23 01:01:07;;;;;;;4.03;1.90;;;;;;;-145.01;100.00;64805.59;5085189;28;20036;-60
2023/03/23 01:03:33;;;;;;;3.70;2.20;;;;;;;-145.01;100.00;64805.59;5078808;28;20041;-59
2023/03/23 01:06:04;;;;;;;3.78;2.00;;;;;;;-145.01;100.00;64805.59;5082084;28;20036;-59
2023/03/23 01:08:31;;;;;;;4.57;2.00;;;;;;;-145.01;100.00;64805.59;5080838;28;20389;-60
2023/03/23 01:11:04;;;;;;;4.80;2.00;;;;;;;-145.01;100.00;64805.59;5078798;28;20044;-60
2023/03/23 01:13:30;;;;;;;5.45;2.30;;;;;;;-145.01;100.00;64805.59;5074918;28;20040;-60
2023/03/23 01:15:55;;;;;;;5.30;2.00;;;;;;;-145.01;100.00;64805.59;5076002;28;20044;-60
2023/03/23 01:18:20;;;;;;;3.63;2.10;;;;;;;-145.01;100.00;64805.59;5052874;28;20028;-60
2023/03/23 01:20:46;;;;;;;3.53;2.00;;;;;;;-145.01;100.00;64805.59;5079411;28;20013;-59
2023/03/23 01:23:11;;;;;;;4.90;2.00;;;;;;;-145.01;100.00;64805.59;5081478;28;20043;-60
2023/03/23 01:25:37;;;;;;;4.22;2.10;;;;;;;-145.01;100.00;64805.59;5088556;28;20427;-61
2023/03/23 01:28:02;;;;;;;7.07;2.30;;;;;;;-145.01;100.00;64805.59;5089714;28;20451;-61
2023/03/23 01:30:28;;;;;;;3.85;2.17;;;;;;;-145.01;100.00;64805.59;5080236;28;20027;-60
2023/03/23 01:32:56;;;;;;;2.55;1.77;;;;;;;-145.01;100.00;64805.59;5082102;28;20040;-60
2023/03/23 01:35:21;;;;;;;4.65;1.90;;;;;;;-145.01;100.00;64805.59;5077620;28;20028;-60
2023/03/23 01:37:47;;;;;;;3.75;2.10;;;;;;;-145.01;100.00;64805.59;5083422;28;20148;-60
2023/03/23 01:40:13;;;;;;;4.28;1.90;;;;;;;-145.01;100.00;64805.59;5082766;28;20041;-60
2023/03/23 01:42:39;;;;;;;2.80;1.88;;;;;;;-145.01;100.00;64805.59;5077205;28;20027;-60
2023/03/23 01:45:19;;;;;;;6.97;2.10;;;;;;;-145.01;100.00;64805.59;5061880;28;20032;-60
2023/03/23 01:47:50;;;;;;;2.65;1.75;;;;;;;-145.01;100.00;64805.59;5086475;28;20035;-59
2023/03/23 01:50:17;;;;;;;4.15;1.90;;;;;;;-145.01;100.00;64805.59;5063231;28;20031;-60
2023/03/23 01:52:42;;;;;;;2.88;1.90;;;;;;;-145.01;100.00;64805.59;5084171;28;20046;-60
2023/03/23 01:55:08;;;;;;;4.47;1.85;;;;;;;-145.01;100.00;64805.59;5088733;28;20025;-59
2023/03/23 01:57:33;;;;;;;4.93;2.15;;;;;;;-145.01;100.00;64805.59;5085598;28;20028;-60
2023/03/23 02:00:07;;;;;;;3.03;2.08;;;;;;;-145.01;100.00;64805.59;5083877;28;20032;-59
2023/03/23 02:02:35;;;;;;;3.85;1.90;;;;;;;-145.01;100.00;64805.59;5073134;28;20031;-60
2023/03/23 02:05:02;;;;;;;4.28;1.80;;;;;;;-145.01;100.00;64805.59;5076213;28;20024;-59
2023/03/23 02:07:28;;;;;;;4.47;2.00;;;;;;;-145.01;100.00;64805.59;5059473;28;20024;-60
2023/03/23 02:09:53;;;;;;;3.92;1.90;;;;;;;-145.01;100.00;64805.59;5083304;28;20483;-59
2023/03/23 02:12:19;;;;;;;5.07;1.90;;;;;;;-145.01;100.00;64805.59;5092469;28;20730;-59
2023/03/23 02:14:44;;;;;;;4.32;2.13;;;;;;;-145.01;100.00;64805.59;5068214;28;20055;-59
2023/03/23 02:17:52;;;;;;;5.00;2.20;;;;;;;-145.01;100.00;64805.59;5059138;28;20024;-59
2023/03/23 02:20:34;;;;;;;4.65;1.90;;;;;;;-145.01;100.00;64805.59;5069104;28;20046;-60
2023/03/23 02:23:38;;;;;;;3.50;1.70;;;;;;;-145.01;100.00;64805.59;5066336;28;20336;-59
2023/03/23 02:26:09;;;;;;;2.13;1.60;;;;;;;-145.01;100.00;64805.59;5082070;28;20378;-59
2023/03/23 02:28:50;;;;;;;3.17;1.60;;;;;;;-145.01;100.00;64805.59;5085402;28;20019;-60
2023/03/23 02:31:41;;;;;;;5.72;1.90;;;;;;;-145.01;100.00;64805.59;5088047;28;20055;-59
2023/03/23 02:34:20;;;;;;;4.43;1.92;;;;;;;-145.01;100.00;64805.59;5060793;28;20068;-59
2023/03/23 02:36:47;;;;;;;2.25;1.70;;;;;;;-145.01;100.00;64805.59;5075352;28;20056;-60
2023/03/23 02:39:23;;;;;;;4.85;1.80;;;;;;;-145.01;100.00;64805.59;5087847;28;20036;-59
2023/03/23 02:41:53;;;;;;;3.88;2.00;;;;;;;-145.01;100.00;64805.59;5048917;28;20042;-59
2023/03/23 02:44:18;;;;;;;2.90;1.95;;;;;;;-145.01;100.00;64805.59;5059386;28;20040;-60
2023/03/23 02:46:44;;;;;;;3.28;1.90;;;;;;;-145.01;100.00;64805.59;5053539;28;20102;-60
2023/03/23 02:49:11;;;;;;;3.00;2.00;;;;;;;-145.01;100.00;64805.59;5082085;28;20123;-59
2023/03/23 02:51:36;;;;;;;4.35;2.08;;;;;;;-145.01;100.00;64805.59;5054315;28;20031;-59
2023/03/23 02:54:02;;;;;;;4.10;1.92;;;;;;;-145.01;100.00;64805.59;5086294;28;20699;-59
2023/03/23 02:56:27;;;;;;;3.22;1.95;;;;;;;-145.01;100.00;64805.59;5047193;28;20065;-59
2023/03/23 02:58:54;;;;;;;4.85;1.98;;;;;;;-145.01;100.00;64805.59;5044662;28;20059;-59
2023/03/23 03:01:25;;;;;;;3.95;2.15;;;;;;;-145.01;100.00;64805.59;5062159;28;20482;-59
2023/03/23 03:03:52;;;;;;;7.32;2.13;;;;;;;-145.01;100.00;64805.59;5077583;28;20027;-59
2023/03/23 03:06:40;;;;;;;4.32;2.28;;;;;;;-145.01;100.00;64805.59;5075087;28;20036;-60
2023/03/23 03:09:34;;;;;;;3.03;2.03;;;;;;;-145.01;100.00;64805.59;5052194;28;20036;-58
2023/03/23 03:12:04;;;;;;;3.75;2.20;;;;;;;-145.01;100.00;64805.59;5077096;28;20227;-58
2023/03/23 03:14:35;;;;;;;;;;;;;;;-145.01;100.00;64805.59;5066379;28;20121;-58
2023/03/23 03:17:00;;;;;;;;;;;;;;;-145.01;100.00;64805.59;5062386;28;19965;-58
2023/03/23 03:19:29;;;;;;;5.28;2.33;;;;;;;-145.01;100.00;64805.59;5063741;28;19920;-58
2023/03/23 03:21:54;;;;;;;3.42;2.13;;;;;;;-145.01;100.00;64805.59;5063137;28;20023;-59
2023/03/23 03:24:20;;;;;;;5.22;2.60;;;;;;;-145.01;100.00;64805.59;5069939;28;20442;-59
2023/03/23 03:26:47;;;;;;;4.28;2.22;;;;;;;-145.01;100.00;64805.59;5036934;28;20037;-59
2023/03/23 03:29:23;;;;;;;3.92;2.20;;;;;;;-145.01;100.00;64805.59;5087035;28;20025;-59
2023/03/23 03:31:49;;;;;;;5.00;2.33;;;;;;;-145.01;100.00;64805.59;5051587;28;20032;-58
2023/03/23 03:34:17;;;;;;;3.30;2.17;;;;;;;-145.01;100.00;64805.59;5065955;28;20021;-59
2023/03/23 03:36:45;;;;;;;3.95;2.22;;;;;;;-145.01;100.00;64805.59;5067172;28;20023;-58
2023/03/23 03:39:12;;;;;;;4.40;2.78;;;;;;;-145.01;100.00;64805.59;5058958;28;20039;-59
2023/03/23 03:41:37;;;;;;;6.82;2.80;;;;;;;-145.01;100.00;64805.59;5063905;28;20430;-58
2023/03/23 03:44:04;;;;;;;8.98;2.58;;;;;;;-145.01;100.00;64805.59;5064910;28;20056;-58
2023/03/23 03:46:30;;;;;;;5.28;2.30;;;;;;;-145.01;100.00;64805.59;5060811;28;20032;-59
2023/03/23 03:48:57;;;;;;;5.05;2.33;;;;;;;-145.01;100.00;64805.59;5060035;28;20163;-59
2023/03/23 03:51:23;;;;;;;5.05;2.80;;;;;;;-145.01;100.00;64805.59;5059899;28;20383;-58
2023/03/23 03:53:48;;;;;;;7.00;2.50;;;;;;;-145.01;100.00;64805.59;5055538;28;20021;-58
2023/03/23 03:56:14;;;;;;;6.13;3.00;;;;;;;-145.01;100.00;64805.59;5065720;28;20027;-59
2023/03/23 03:58:42;;;;;;;10.60;2.80;;;;;;;-145.01;100.00;64805.59;5069245;28;20023;-59
2023/03/23 04:01:09;;;;;;;5.13;2.35;;;;;;;-145.01;100.00;64805.59;5062430;28;20090;-59
2023/03/23 04:03:35;;;;;;;6.45;2.88;;;;;;;-145.01;100.00;64805.59;5068827;28;20051;-59
2023/03/23 04:06:01;;;;;;;7.10;3.10;;;;;;;-145.01;100.00;64805.59;5054115;28;20036;-58
2023/03/23 04:08:26;;;;;;;6.82;3.13;;;;;;;-145.01;100.00;64805.59;5052640;28;20047;-59
2023/03/23 04:10:54;;;;;;;4.75;2.22;;;;;;;-145.01;100.00;64805.59;5049877;28;20021;-59
2023/03/23 04:13:20;;;;;;;3.67;2.65;;;;;;;-145.01;100.00;64805.59;5061706;28;20031;-58
2023/03/23 04:15:45;;;;;;;5.20;2.55;;;;;;;-145.01;100.00;64805.59;5054982;28;20127;-59
2023/03/23 04:18:11;;;;;;;6.63;2.80;;;;;;;-145.01;100.00;64805.59;5063947;28;20028;-59
2023/03/23 04:20:37;;;;;;;4.60;2.83;;;;;;;-145.01;100.00;64805.59;5054192;28;20020;-59
2023/03/23 04:23:02;;;;;;;4.15;2.75;;;;;;;-145.01;100.00;64805.59;5052966;28;20028;-59
2023/03/23 04:25:28;;;;;;;6.30;3.05;;;;;;;-145.01;100.00;64805.59;5049549;28;20426;-58
2023/03/23 04:27:53;;;;;;;6.40;3.17;;;;;;;-145.01;100.00;64805.59;5070882;28;20114;-60
2023/03/23 04:30:24;;;;;;;7.63;3.15;;;;;;;-145.01;100.00;64805.59;5060174;28;20030;-60
2023/03/23 04:32:54;;;;;;;5.72;3.17;;;;;;;-145.01;100.00;64805.59;5081892;28;20108;-60
2023/03/23 04:35:20;;;;;;;7.40;3.03;;;;;;;-145.01;100.00;64805.59;5065627;28;20064;-60
2023/03/23 04:37:46;;;;;;;5.63;3.20;;;;;;;-145.01;100.00;64805.59;5058135;28;20090;-60
2023/03/23 04:40:14;;;;;;;5.43;2.95;;;;;;;-145.01;100.00;64805.59;5055948;28;20458;-60
2023/03/23 04:42:45;;;;;;;5.70;3.40;;;;;;;-145.01;100.00;64805.59;5074139;28;20371;-60
2023/03/23 04:45:12;;;;;;;4.63;3.20;;;;;;;-145.01;100.00;64805.59;5055518;28;20107;-60
2023/03/23 04:47:40;;;;;;;5.13;3.08;;;;;;;-145.01;100.00;64805.59;5051538;28;20040;-60
2023/03/23 04:50:09;;;;;;;6.85;3.22;;;;;;;-145.01;100.00;64805.59;5058195;28;20043;-60
2023/03/23 04:52:37;;;;;;;6.25;3.25;;;;;;;-145.01;100.00;64805.59;5056332;28;20016;-60
2023/03/23 04:55:06;;;;;;;5.93;3.38;;;;;;;-145.01;100.00;64805.59;5068620;28;20064;-61
2023/03/23 04:57:32;;;;;;;4.45;2.65;;;;;;;-145.01;100.00;64805.59;5070077;28;20347;-61
2023/03/23 04:59:58;;;;;;;5.25;3.20;;;;;;;-145.01;100.00;64805.59;5058153;28;20485;-60
2023/03/23 05:02:25;;;;;;;4.78;3.05;;;;;;;-145.01;100.00;64805.59;5047558;28;20051;-60
2023/03/23 05:04:50;;;;;;;6.55;3.53;;;;;;;-145.01;100.00;64805.59;5062538;28;20059;-60
2023/03/23 05:07:16;;;;;;;7.50;3.50;;;;;;;-145.01;100.00;64805.59;5058010;28;20468;-60
2023/03/23 05:09:41;;;;;;;9.20;3.47;;;;;;;-145.01;100.00;64805.59;5057256;28;20063;-60
2023/03/23 05:12:08;;;;;;;5.15;3.13;;;;;;;-145.01;100.00;64805.59;5063618;28;21333;-60
2023/03/23 05:14:33;;;;;;;7.05;3.50;;;;;;;-145.01;100.00;64805.59;5067060;28;20063;-60
2023/03/23 05:16:59;;;;;;;6.95;3.47;;;;;;;-145.01;100.00;64805.59;5078568;28;20032;-60
2023/03/23 05:19:24;;;;;;;7.82;3.72;;;;;;;-145.01;100.00;64805.59;5041846;28;20028;-60
2023/03/23 05:21:50;;;;;;;5.63;3.55;;;;;;;-145.01;100.00;64805.59;5078495;28;20043;-60
2023/03/23 05:24:15;;;;;;;7.45;3.90;;;;;;;-145.01;100.00;64805.59;5079897;28;20020;-60
2023/03/23 05:26:40;;;;;;;6.00;3.67;;;;;;;-145.01;100.00;64805.59;5079093;28;20024;-60
2023/03/23 05:29:06;;;;;;;5.43;3.40;;;;;;;-145.01;100.00;64805.59;5073792;28;20025;-60
2023/03/23 05:31:31;;;;;;;6.38;3.65;;;;;;;-145.01;100.00;64805.59;5077844;28;20024;-60
2023/03/23 05:33:57;;;;;;;7.30;3.95;;;;;;;-145.01;100.00;64805.59;5077629;28;20423;-60
2023/03/23 05:36:22;;;;;;;8.30;4.18;;;;;;;-145.01;100.00;64805.59;5067775;28;20462;-60
2023/03/23 05:38:50;;;;;;;7.20;3.65;;;;;;;-145.01;100.00;64805.59;5079732;28;20067;-59
2023/03/23 05:41:16;;;;;;;7.75;3.90;;;;;;;-145.01;100.00;64805.59;5073929;28;20020;-60
2023/03/23 05:43:41;;;;;;;6.72;3.55;;;;;;;-145.01;100.00;64805.59;5082375;28;20031;-60
2023/03/23 05:46:07;;;;;;;10.75;3.97;;;;;;;-145.01;100.00;64805.59;5080308;28;20478;-59
2023/03/23 05:48:33;;;;;;;8.82;4.18;;;;;;;-145.01;100.00;64805.59;5079870;28;20032;-60
2023/03/23 05:50:58;;;;;;;6.20;3.70;;;;;;;-145.01;100.00;64805.59;5081316;28;20123;-60
2023/03/23 05:53:24;;;;;;;6.20;3.75;;;;;;;-145.01;100.00;64805.59;5089492;28;20333;-60
2023/03/23 05:55:50;;;;;;;7.28;3.90;;;;;;;-145.01;100.00;64805.59;5078353;28;20514;-60
2023/03/23 05:58:15;;;;;;;7.13;3.90;;;;;;;-145.01;100.00;64805.59;5083140;28;20073;-60
2023/03/23 06:00:41;;;;;;;6.18;3.70;;;;;;;-145.01;100.00;64805.59;5077199;28;20036;-60
2023/03/23 06:03:06;;;;;;;10.15;4.07;;;;;;;-145.01;100.00;64805.59;5083015;28;20060;-60
2023/03/23 06:05:32;;;;;;;7.47;3.97;;;;;;;-145.01;100.00;64805.59;5093792;28;20034;-60
2023/03/23 06:07:58;;;;;;;6.97;3.90;;;;;;;-145.01;100.00;64805.59;5075251;28;20086;-60
2023/03/23 06:10:24;;;;;;;6.57;3.63;;;;;;;-145.01;100.00;64805.59;5077827;28;20093;-60
2023/03/23 06:12:50;;;;;;;7.72;3.85;;;;;;;-145.01;100.00;64805.59;5085556;28;20036;-60
2023/03/23 06:15:16;;;;;;;7.90;4.18;;;;;;;-145.01;100.00;64805.59;5085166;28;20044;-60
2023/03/23 06:17:41;;;;;;;7.22;4.03;;;;;;;-145.01;100.00;64805.59;5084609;28;20035;-60
2023/03/23 06:20:09;;;;;;;8.65;3.88;;;;;;;-145.01;100.00;64805.59;5074188;28;20098;-60
2023/03/23 06:22:35;;;;;;;11.32;4.45;;;;;;;-145.01;100.00;64805.59;5088628;28;20106;-60
2023/03/23 06:25:00;;;;;;;6.72;4.00;;;;;;;-145.01;100.00;64805.59;5064797;28;20108;-60
2023/03/23 06:27:26;;;;;;;7.82;3.70;;;;;;;-145.01;100.00;64805.59;5084727;28;20039;-59
2023/03/23 06:29:52;;;;;;;7.15;3.83;;;;;;;-145.01;100.00;64805.59;5089873;28;20027;-60
2023/03/23 06:32:17;;;;;;;9.27;3.70;;;;;;;-145.01;100.00;64805.59;5082639;28;20039;-60
2023/03/23 06:34:44;;;;;;;8.73;4.15;;;;;;;-145.01;100.00;64805.59;5060771;28;20027;-60
2023/03/23 06:37:10;;;;;;;6.95;3.47;;;;;;;-145.01;100.00;64805.59;5079529;28;20463;-60
2023/03/23 06:39:38;;;;;;;5.97;3.70;;;;;;;-145.01;100.00;64805.59;5078379;28;20035;-59
2023/03/23 06:42:03;;;;;;;6.32;4.00;;;;;;;-145.01;100.00;64805.59;5088423;28;20451;-60
2023/03/23 06:44:29;;;;;;;8.45;3.60;;;;;;;-145.01;100.00;64805.59;5091366;28;20084;-59
2023/03/23 06:46:54;;;;;;;7.15;3.60;;;;;;;-145.01;100.00;64805.59;5078526;28;20039;-61
2023/03/23 06:49:20;;;;;;;8.15;3.70;;;;;;;-145.01;100.00;64805.59;5084109;28;20019;-61
2023/03/23 06:51:45;;;;;;;7.95;3.60;;;;;;;-145.01;100.00;64805.59;5089383;28;20382;-60
2023/03/23 06:54:11;;;;;;;6.80;3.50;;;;;;;-145.01;100.00;64805.59;5078900;28;20617;-60
2023/03/23 06:56:36;;;;;;;8.55;3.63;;;;;;;-145.01;100.00;64805.59;5088350;28;20032;-61
2023/03/23 06:59:02;;;;;;;8.95;3.90;;;;;;;-145.01;100.00;64805.59;5089041;28;20028;-61
2023/03/23 07:01:28;;;;;;;7.93;3.55;;;;;;;-145.01;100.00;64805.59;5085011;28;20024;-60
2023/03/23 07:03:55;;;;;;;8.55;3.72;;;;;;;-145.01;100.00;64805.59;5061601;28;20267;-60
2023/03/23 07:06:21;;;;;;;8.18;3.88;;;;;;;-145.01;100.00;64805.59;5083231;28;20545;-60
2023/03/23 07:08:47;;;;;;;7.45;3.72;;;;;;;-145.01;100.00;64805.59;5068819;28;20031;-60
2023/03/23 07:11:12;;;;;;;7.90;3.70;;;;;;;-145.01;100.00;64805.59;5074699;28;20108;-59
2023/03/23 07:13:38;;;;;;;7.88;3.60;;;;;;;-145.01;100.00;64805.59;5079227;28;20198;-60
2023/03/23 07:16:07;;;;;;;8.65;4.03;;;;;;;-145.01;100.00;64805.59;5081633;28;20078;-60
2023/03/23 07:18:33;;;;;;;5.60;3.20;;;;;;;-145.01;100.00;64805.59;5084652;28;20035;-60
2023/03/23 07:20:58;;;;;;;6.70;3.30;;;;;;;-145.01;100.00;64805.59;5080519;28;20025;-60
2023/03/23 07:23:24;;;;;;;11.10;3.60;;;;;;;-145.01;100.00;64805.59;5074452;28;20036;-60
2023/03/23 07:25:49;;;;;;;5.88;3.63;;;;;;;-145.01;100.00;64805.59;5078505;28;20040;-60
2023/03/23 07:28:15;;;;;;;7.78;3.38;;;;;;;-145.01;100.00;64805.59;5080456;28;20395;-60
2023/03/23 07:30:41;;;;;;;7.20;3.00;;;;;;;-145.01;100.00;64805.59;5085381;28;20031;-59
2023/03/23 07:33:07;;;;;;;6.82;3.40;;;;;;;-145.01;100.00;64805.59;5077525;28;20050;-60
2023/03/23 07:35:32;;;;;;;8.07;3.70;;;;;;;-145.01;100.00;64805.59;5086086;28;20350;-60
2023/03/23 07:37:58;;;;;;;7.65;3.13;;;;;;;-145.01;100.00;64805.59;5073283;28;20114;-59
2023/03/23 07:40:23;;;;;;;7.68;3.45;;;;;;;-145.01;100.00;64805.59;5072775;28;20031;-61
2023/03/23 07:42:54;;;;;;;6.22;3.35;;;;;;;-145.01;100.00;64805.59;5078135;28;20036;-59
2023/03/23 07:45:20;;;;;;;7.80;3.58;;;;;;;-145.01;100.00;64805.59;5082597;28;20119;-60
2023/03/23 07:47:45;;;;;;;9.82;3.40;;;;;;;-145.01;100.00;64805.59;5065170;28;20118;-59
2023/03/23 07:50:12;;;;;;;8.13;3.10;;;;;;;-145.01;100.00;64805.59;5082301;28;20020;-59
2023/03/23 07:52:37;;;;;;;9.90;3.33;;;;;;;-145.01;100.00;64805.59;5080983;28;20108;-59
2023/03/23 07:55:04;;;;;;;9.40;3.33;;;;;;;-145.01;100.00;64805.59;5059781;28;20075;-59
2023/03/23 07:57:30;;;;;;;7.18;2.92;;;;;;;-145.01;100.00;64805.59;5077782;28;20028;-60
2023/03/23 07:59:56;;;;;;;6.20;3.08;;;;;;;-145.01;100.00;64805.59;5070590;28;20038;-60
2023/03/23 08:02:22;;;;;;;8.48;3.53;;;;;;;-145.01;100.00;64805.59;5071079;28;20067;-59
2023/03/23 08:04:48;;;;;;;8.77;3.35;;;;;;;-145.01;100.00;64805.59;5082733;28;20051;-59
2023/03/23 08:07:16;;;;;;;7.90;3.20;;;;;;;-145.01;100.00;64805.59;5080263;28;20090;-59
2023/03/23 08:09:41;;;;;;;8.27;3.00;;;;;;;-145.01;100.00;64805.59;5075494;28;20032;-59
2023/03/23 08:12:07;;;;;;;8.05;3.30;;;;;;;-145.01;100.00;64805.59;5073524;28;20384;-59
2023/03/23 08:14:33;;;;;;;8.35;2.97;;;;;;;-145.01;100.00;64805.59;5092018;28;20039;-59
2023/03/23 08:16:58;;;;;;;7.00;2.92;;;;;;;-145.01;100.00;64805.59;5080739;28;20043;-59
2023/03/23 08:19:24;;;;;;;7.38;2.88;;;;;;;-145.01;100.00;64805.59;5084581;28;20035;-59
2023/03/23 08:21:49;;;;;;;7.05;3.25;;;;;;;-145.01;100.00;64805.59;5079255;28;20051;-59
2023/03/23 08:24:15;;;;;;;5.05;2.60;;;;;;;-145.01;100.00;64805.59;5098861;28;20474;-60
2023/03/23 08:26:41;;;;;;;7.00;3.00;;;;;;;-145.01;100.00;64805.59;5075460;28;20021;-58
2023/03/23 08:29:06;;;;;;;6.35;3.00;;;;;;;-145.01;100.00;64805.59;5076123;28;20032;-59
2023/03/23 08:31:34;;;;;;;6.85;2.80;;;;;;;-145.01;100.00;64805.59;5061350;28;20016;-59
2023/03/23 08:34:00;;;;;;;9.05;3.78;;;;;;;-145.01;100.00;64805.59;5092427;28;20062;-59
2023/03/23 08:36:26;;;;;;;6.50;2.80;;;;;;;-145.01;100.00;64805.59;5088263;28;20043;-59
2023/03/23 08:38:52;;;;;;;4.32;2.65;;;;;;;-145.01;100.00;64805.59;5078711;28;20024;-59
2023/03/23 08:41:18;;;;;;;6.40;2.83;;;;;;;-145.01;100.00;64805.59;5085553;28;20509;-59
2023/03/23 08:43:43;;;;;;;5.38;2.45;;;;;;;-145.01;100.00;64805.59;5086508;28;20045;-59
2023/03/23 08:46:10;;;;;;;6.72;2.80;;;;;;;-145.01;100.00;64805.59;5089140;28;20032;-60
2023/03/23 08:48:36;;;;;;;8.20;3.15;;;;;;;-145.01;100.00;64805.59;5090039;28;20462;-59
2023/03/23 08:51:03;;;;;;;5.60;2.53;;;;;;;-145.01;100.00;64805.59;5080491;28;20503;-59
2023/03/23 08:53:31;;;;;;;5.35;2.42;;;;;;;-145.01;100.00;64805.59;5077711;28;20024;-59
2023/03/23 08:56:03;;;;;;;6.20;2.58;;;;;;;-145.01;100.00;64805.59;5079539;28;20043;-59
2023/03/23 08:58:29;;;;;;;4.78;2.15;;;;;;;-145.01;100.00;64805.59;5073847;28;20343;-60
2023/03/23 09:00:54;;;;;;;3.15;1.80;;;;;;;-145.01;100.00;64805.59;5097061;28;20181;-59
2023/03/23 09:03:20;;;;;;;4.95;2.00;;;;;;;-145.01;100.00;64805.59;5086859;28;20459;-59
2023/03/23 09:05:45;;;;;;;5.63;2.00;;;;;;;-145.01;100.00;64805.59;5077693;28;20090;-59
2023/03/23 09:08:12;;;;;;;5.53;2.22;;;;;;;-145.01;100.00;64805.59;5080323;28;20534;-59
2023/03/23 09:10:38;;;;;;;3.40;1.98;;;;;;;-145.01;100.00;64805.59;5066965;28;20047;-59
2023/03/23 09:13:04;;;;;;;4.95;1.90;;;;;;;-145.01;100.00;64805.59;5081951;28;20041;-58
2023/03/23 09:15:30;;;;;;;4.03;2.10;;;;;;;-145.01;100.00;64805.59;5084654;28;20227;-60
2023/03/23 09:17:56;;;;;;;5.38;1.80;;;;;;;-145.01;100.00;64805.59;5080543;28;20044;-60
2023/03/23 09:20:23;;;;;;;7.05;2.17;;;;;;;-145.01;100.00;64805.59;5079759;28;20012;-59
2023/03/23 09:22:50;;;;;;;3.88;1.88;;;;;;;-145.01;100.00;64805.59;5086500;28;20025;-59
2023/03/23 09:25:20;;;;;;;5.93;2.10;;;;;;;-145.01;100.00;64805.59;5081493;28;20083;-58
2023/03/23 09:27:47;;;;;;;12.52;9.95;;;;;;;-145.01;100.00;64805.59;5065188;28;20025;-59
2023/03/23 09:30:14;;;;;;;10.23;7.45;;;;;;;-145.01;100.00;64805.59;5063589;28;20037;-59
2023/03/23 09:32:39;;;;;;;16.88;12.75;;;;;;;-145.01;100.00;64805.59;5082421;28;20051;-59
2023/03/23 09:35:11;;;;;;;17.23;14.98;;;;;;;-145.01;100.00;64805.59;5083417;28;20028;-59
2023/03/23 09:37:38;;;;;;;8.95;6.88;;;;;;;-145.01;100.00;64805.59;5069480;28;20028;-59
2023/03/23 09:40:05;;;;;;;12.20;9.30;;;;;;;-145.01;100.00;64805.59;5087329;28;20047;-58
2023/03/23 09:43:04;;;;;;;3.88;2.17;;;;;;;-145.01;100.00;64805.59;5084700;28;20083;-60
2023/03/23 09:45:48;;;;;;;5.13;2.00;;;;;;;-145.01;100.00;64805.59;5081380;28;20412;-60
2023/03/23 09:48:33;;;;;;;5.85;4.35;;;;;;;-145.01;100.00;64805.59;5084513;28;20040;-60
2023/03/23 09:51:20;;;;;;;7.90;4.93;;;;;;;-145.01;100.00;64805.59;5089613;28;20040;-60
2023/03/23 09:54:08;;;;;;;6.22;3.47;;;;;;;-145.01;100.00;64805.59;5071804;28;20081;-59
2023/03/23 09:56:34;;;;;;;6.30;1.92;;;;;;;-145.01;100.00;64805.59;5028377;28;20499;-59
2023/03/23 09:59:10;;;;;;;5.95;2.55;;;;;;;-145.01;100.00;64805.59;5066050;28;20070;-59
2023/03/23 10:01:42;;;;;;;4.70;3.15;;;;;;;-145.01;100.00;64805.59;5060861;28;20036;-59
2023/03/23 10:04:35;;;;;;;5.45;3.60;;;;;;;-145.01;100.00;64805.59;5080234;28;20459;-59
2023/03/23 10:07:13;;;;;;;5.47;2.45;;;;;;;-145.01;100.00;64805.59;5054541;28;20036;-59
2023/03/23 10:09:39;;;;;;;3.03;1.80;;;;;;;-145.01;100.00;64805.59;5084831;28;20024;-59
2023/03/23 10:12:17;;;;;;;4.63;2.65;;;;;;;-145.01;100.00;64805.59;5060635;28;20332;-59
2023/03/23 10:14:57;;;;;;;6.07;2.22;;;;;;;-145.01;100.00;64805.59;5085587;28;20076;-59
2023/03/23 10:17:46;;;;;;;3.38;2.25;;;;;;;-145.01;100.00;64805.59;5082365;28;20032;-58
2023/03/23 10:20:11;;;;;;;4.20;2.05;;;;;;;-145.01;100.00;64805.59;5074665;28;20047;-58
2023/03/23 10:22:41;;;;;;;4.85;1.95;;;;;;;-145.01;100.00;64805.59;5086704;28;20019;-61
2023/03/23 10:25:15;;;;;;;6.10;1.80;;;;;;;-145.01;100.00;64805.59;5085950;28;20086;-59
2023/03/23 10:28:13;;;;;;;4.00;1.88;;;;;;;-145.01;100.00;64805.59;5079876;28;20179;-58
2023/03/23 10:30:56;;;;;;;6.53;2.10;;;;;;;-145.01;100.00;64805.59;5082527;28;20032;-59
2023/03/23 10:33:25;;;;;;;3.70;1.90;;;;;;;-145.01;100.00;64805.59;5045252;28;20034;-59
2023/03/23 10:36:03;;;;;;;3.97;1.90;;;;;;;-145.01;100.00;64805.59;5059392;28;20052;-59
2023/03/23 10:38:58;;;;;;;6.18;2.10;;;;;;;-145.01;100.00;64805.59;5083847;28;20059;-59
2023/03/23 10:41:23;;;;;;;3.58;1.90;;;;;;;-145.01;100.00;64805.59;5062610;28;20024;-61
2023/03/23 10:43:50;;;;;;;3.60;2.05;;;;;;;-145.01;100.00;64805.59;5079717;28;20414;-59
2023/03/23 10:46:22;;;;;;;4.43;2.20;;;;;;;-145.01;100.00;64805.59;5078782;28;20032;-59
2023/03/23 10:48:49;;;;;;;3.30;1.77;;;;;;;-145.01;100.00;64805.59;5061604;28;20462;-59
2023/03/23 10:51:16;;;;;;;5.35;2.33;;;;;;;-145.01;100.00;64805.59;5066999;28;20414;-59
2023/03/23 10:53:47;;;;;;;3.45;1.98;;;;;;;-145.01;100.00;64805.59;5059705;28;20074;-59
2023/03/23 10:56:27;;;;;;;3.30;1.80;;;;;;;-145.01;100.00;64805.59;5052607;28;20028;-59
2023/03/23 10:58:53;;;;;;;4.68;1.80;;;;;;;-145.01;100.00;64805.59;5076344;28;20237;-59
2023/03/23 11:01:20;;;;;;;3.20;1.75;;;;;;;-145.01;100.00;64805.59;5082200;28;20071;-59
2023/03/23 11:03:48;;;;;;;6.03;2.17;;;;;;;-145.01;100.00;64805.59;5081227;28;20445;-59
2023/03/23 11:06:26;;;;;;;3.33;1.98;;;;;;;-145.01;100.00;64805.59;5048332;28;20453;-59
2023/03/23 11:08:54;;;;;;;8.40;2.17;;;;;;;-145.01;100.00;64805.59;5041186;28;20039;-59
2023/03/23 11:11:30;;;;;;;2.65;1.60;;;;;;;-145.01;100.00;64805.59;5062751;28;20024;-59
2023/03/23 11:14:18;;;;;;;4.85;2.72;;;;;;;13.92;73.71;98529.88;5111512;27;20394;-58
2023/03/23 11:17:00;;;;;;;6.72;2.30;;;;;;;13.56;75.59;98522.06;5111431;28;20644;-58